createdAt,value
2023-10-20T00:01:07.675Z,94082.53
2023-10-20T00:03:35.489Z,94063.41
2023-10-20T00:06:05.856Z,94061.84
2023-10-20T00:08:33.485Z,94060.00
2023-10-20T00:11:05.057Z,94064.47
2023-10-20T00:13:34.637Z,94057.91
2023-10-20T00:16:02.250Z,94049.78
2023-10-20T00:18:29.861Z,94056.59
2023-10-20T00:20:57.418Z,94057.13
2023-10-20T00:23:26.470Z,94068.13
2023-10-20T00:25:54.005Z,94055.56
2023-10-20T00:28:21.681Z,94056.09
2023-10-20T00:30:49.281Z,94039.81
2023-10-20T00:33:16.974Z,94033.81
2023-10-20T00:35:44.581Z,94031.19
2023-10-20T00:38:12.580Z,94019.66
2023-10-20T00:40:48.132Z,94014.16
2023-10-20T00:43:15.782Z,94010.47
2023-10-20T00:45:46.374Z,94005.75
2023-10-20T00:48:14.750Z,94010.47
2023-10-20T00:50:42.630Z,93995.53
2023-10-20T00:53:11.262Z,93992.66
2023-10-20T00:55:38.932Z,93986.38
2023-10-20T00:58:09.491Z,93992.13
2023-10-20T01:00:37.026Z,93994.22
2023-10-20T01:03:06.013Z,93994.72
2023-10-20T01:05:34.009Z,93999.97
2023-10-20T01:08:01.653Z,93997.09
2023-10-20T01:10:29.539Z,93999.44
2023-10-20T01:12:57.077Z,94000.22
2023-10-20T01:15:26.064Z,93998.66
2023-10-20T01:17:53.722Z,93995.75
2023-10-20T01:20:21.403Z,93984.50
2023-10-20T01:22:49.004Z,93993.16
2023-10-20T01:25:18.047Z,93988.72
2023-10-20T01:27:45.697Z,93988.41
2023-10-20T01:30:13.611Z,93977.69
2023-10-20T01:32:42.924Z,93970.59
2023-10-20T01:35:11.032Z,93965.34
2023-10-20T01:37:38.635Z,93962.47
2023-10-20T01:40:08.716Z,93959.09
2023-10-20T01:42:37.734Z,93957.50
2023-10-20T01:45:06.154Z,93956.72
2023-10-20T01:47:33.772Z,93954.09
2023-10-20T01:50:02.434Z,93944.41
2023-10-20T01:52:29.975Z,93935.75
2023-10-20T01:54:57.672Z,93935.75
2023-10-20T01:57:25.223Z,93922.66
2023-10-20T01:59:54.107Z,93921.88
2023-10-20T02:02:21.791Z,93900.91
2023-10-20T02:04:49.389Z,93899.31
2023-10-20T02:07:17.168Z,93883.59
2023-10-20T02:09:44.701Z,93874.69
2023-10-20T02:12:12.464Z,93862.13
2023-10-20T02:14:40.042Z,93862.63
2023-10-20T02:17:09.603Z,93850.81
2023-10-20T02:19:37.889Z,93844.50
2023-10-20T02:22:05.817Z,93837.94
2023-10-20T02:24:33.524Z,93826.69
2023-10-20T02:27:01.162Z,93826.69
2023-10-20T02:29:28.767Z,93823.78
2023-10-20T02:31:56.408Z,93802.81
2023-10-20T02:34:25.957Z,93801.75
2023-10-20T02:36:53.482Z,93790.50
2023-10-20T02:39:21.368Z,93776.63
2023-10-20T02:41:48.940Z,93775.84
2023-10-20T02:44:16.516Z,93756.69
2023-10-20T02:46:45.018Z,93761.44
2023-10-20T02:49:12.656Z,93752.78
2023-10-20T02:51:41.541Z,93758.03
2023-10-20T02:54:11.158Z,93766.69
2023-10-20T02:56:38.913Z,93777.19
2023-10-20T02:59:06.670Z,93776.38
2023-10-20T03:01:34.319Z,93768.78
2023-10-20T03:04:02.362Z,93775.06
2023-10-20T03:06:29.989Z,93776.94
2023-10-20T03:08:58.848Z,93783.50
2023-10-20T03:11:26.445Z,93771.44
2023-10-20T03:13:53.997Z,93757.81
2023-10-20T03:16:22.521Z,93742.38
2023-10-20T03:18:50.176Z,93745.00
2023-10-20T03:21:19.262Z,93731.91
2023-10-20T03:23:46.918Z,93735.81
2023-10-20T03:26:15.924Z,93748.41
2023-10-20T03:28:44.711Z,93759.69
2023-10-20T03:31:12.557Z,93776.19
2023-10-20T03:33:40.203Z,93770.72
2023-10-20T03:36:08.009Z,93761.56
2023-10-20T03:38:35.592Z,93756.88
2023-10-20T03:41:08.140Z,93763.69
2023-10-20T03:43:37.412Z,93746.97
2023-10-20T03:46:06.248Z,93751.94
2023-10-20T03:48:35.820Z,93744.63
2023-10-20T03:51:06.236Z,93731.03
2023-10-20T03:53:42.349Z,93715.88
2023-10-20T03:56:10.761Z,93717.16
2023-10-20T03:58:40.020Z,93707.25
2023-10-20T04:01:08.276Z,93701.50
2023-10-20T04:03:36.072Z,93699.44
2023-10-20T04:06:07.459Z,93695.22
2023-10-20T04:08:35.276Z,93685.81
2023-10-20T04:11:03.005Z,93671.66
2023-10-20T04:13:33.145Z,93667.50
2023-10-20T04:16:13.166Z,93649.69
2023-10-20T04:18:41.454Z,93635.03
2023-10-20T04:21:09.420Z,93628.75
2023-10-20T04:23:37.836Z,93613.31
2023-10-20T04:26:06.237Z,93609.91
2023-10-20T04:28:38.128Z,93595.78
2023-10-20T04:31:24.789Z,93611.47
2023-10-20T04:34:10.017Z,93603.88
2023-10-20T04:36:55.317Z,93602.59
2023-10-20T04:39:40.688Z,93589.78
2023-10-20T04:42:22.138Z,93579.59
2023-10-20T04:45:17.133Z,93579.59
2023-10-20T04:48:03.469Z,93569.91
2023-10-20T04:50:57.195Z,93562.31
2023-10-20T04:53:41.788Z,93558.91
2023-10-20T04:56:26.979Z,93540.09
2023-10-20T04:58:59.357Z,93535.13
2023-10-20T05:01:31.450Z,93528.53
2023-10-20T05:04:10.632Z,93521.19
2023-10-20T05:06:44.032Z,93510.72
2023-10-20T05:09:14.732Z,93519.38
2023-10-20T05:11:42.920Z,93519.38
2023-10-20T05:14:10.706Z,93505.50
2023-10-20T05:16:38.295Z,93498.72
2023-10-20T05:19:07.553Z,93490.59
2023-10-20T05:21:35.834Z,93468.56
2023-10-20T05:24:06.029Z,93469.91
2023-10-20T05:26:34.031Z,93469.13
2023-10-20T05:29:02.263Z,93465.47
2023-10-20T05:31:31.128Z,93460.78
2023-10-20T05:33:58.933Z,93439.31
2023-10-20T05:36:27.859Z,93437.72
2023-10-20T05:38:55.401Z,93442.19
2023-10-20T05:41:23.030Z,93421.25
2023-10-20T05:43:53.566Z,93422.31
2023-10-20T05:46:22.657Z,93419.19
2023-10-20T05:48:50.264Z,93424.69
2023-10-20T05:51:17.894Z,93417.41
2023-10-20T05:53:46.838Z,93406.44
2023-10-20T05:56:14.414Z,93401.19
2023-10-20T05:58:41.996Z,93394.13
2023-10-20T06:01:10.386Z,93388.63
2023-10-20T06:03:39.142Z,93383.09
2023-10-20T06:06:06.934Z,93374.47
2023-10-20T06:08:34.755Z,93356.66
2023-10-20T06:11:04.736Z,93338.81
2023-10-20T06:13:33.848Z,93339.84
2023-10-20T06:16:09.637Z,93328.81
2023-10-20T06:18:37.784Z,93308.88
2023-10-20T06:21:06.203Z,93291.06
2023-10-20T06:23:34.340Z,93278.47
2023-10-20T06:26:01.938Z,93259.09
2023-10-20T06:28:30.832Z,93241.81
2023-10-20T06:31:01.976Z,93252.31
2023-10-20T06:33:33.776Z,93262.19
2023-10-20T06:36:09.950Z,93251.72
2023-10-20T06:38:46.206Z,93248.06
2023-10-20T06:41:15.322Z,93235.75
2023-10-20T06:43:45.237Z,93232.09
2023-10-20T06:46:12.906Z,93223.94
2023-10-20T06:48:40.466Z,93216.56
2023-10-20T06:51:07.991Z,93223.88
2023-10-20T06:53:36.391Z,93204.69
2023-10-20T06:56:15.160Z,93188.13
2023-10-20T06:58:45.810Z,93196.97
2023-10-20T07:01:13.452Z,93199.53
2023-10-20T07:03:42.041Z,93207.28
2023-10-20T07:06:12.036Z,93198.88
2023-10-20T07:08:40.931Z,93187.06
2023-10-20T07:11:08.850Z,93167.63
2023-10-20T07:13:36.415Z,93168.94
2023-10-20T07:16:06.042Z,93152.63
2023-10-20T07:18:33.766Z,93151.28
2023-10-20T07:21:01.387Z,93146.25
2023-10-20T07:23:29.116Z,93150.91
2023-10-20T07:25:56.733Z,93132.00
2023-10-20T07:28:24.263Z,93130.94
2023-10-20T07:30:52.047Z,93128.81
2023-10-20T07:33:20.982Z,93129.28
2023-10-20T07:35:48.774Z,93134.75
2023-10-20T07:38:16.938Z,93123.94
2023-10-20T07:40:44.509Z,93136.78
2023-10-20T07:43:12.216Z,93133.66
2023-10-20T07:45:41.557Z,93145.50
2023-10-20T07:48:09.854Z,93159.66
2023-10-20T07:50:39.024Z,93159.66
2023-10-20T07:53:06.726Z,93141.63
2023-10-20T07:55:34.323Z,93136.94
2023-10-20T07:58:01.833Z,93137.25
2023-10-20T08:00:30.650Z,93141.41
2023-10-20T08:02:58.466Z,93139.28
2023-10-20T08:05:27.174Z,93145.50
2023-10-20T08:07:59.496Z,93142.28
2023-10-20T08:10:27.056Z,93156.66
2023-10-20T08:12:54.977Z,93141.91
2023-10-20T08:15:23.046Z,93135.53
2023-10-20T08:17:52.696Z,93145.16
2023-10-20T08:20:20.526Z,93141.16
2023-10-20T08:22:48.171Z,93141.66
2023-10-20T08:25:17.569Z,93138.47
2023-10-20T08:27:47.321Z,93152.56
2023-10-20T08:30:16.453Z,93148.56
2023-10-20T08:32:44.276Z,93146.44
2023-10-20T08:35:12.529Z,93145.84
2023-10-20T08:37:40.189Z,93147.59
2023-10-20T08:40:11.743Z,93161.72
2023-10-20T08:42:40.951Z,93153.56
2023-10-20T08:45:10.035Z,93154.34
2023-10-20T08:47:37.864Z,93137.06
2023-10-20T08:50:08.374Z,93150.81
2023-10-20T08:52:38.884Z,93152.19
2023-10-20T08:55:08.767Z,93155.81
2023-10-20T08:57:36.424Z,93148.13
2023-10-20T09:00:08.375Z,93151.72
2023-10-20T09:02:39.295Z,93158.72
2023-10-20T09:05:07.884Z,93167.22
2023-10-20T09:07:35.516Z,93156.06
2023-10-20T09:10:04.036Z,93168.69
2023-10-20T09:12:33.759Z,93172.94
2023-10-20T09:15:01.289Z,93147.31
2023-10-20T09:17:34.957Z,93152.34
2023-10-20T09:20:07.563Z,93165.75
2023-10-20T09:22:35.163Z,93156.34
2023-10-20T09:25:03.959Z,93173.69
2023-10-20T09:27:31.576Z,93170.09
2023-10-20T09:30:00.325Z,93186.09
2023-10-20T09:32:28.771Z,93181.44
2023-10-20T09:34:58.998Z,93201.44
2023-10-20T09:37:30.977Z,93194.16
2023-10-20T09:40:06.881Z,93195.03
2023-10-20T09:42:45.117Z,93216.81
2023-10-20T09:45:18.264Z,93234.19
2023-10-20T09:47:53.133Z,93248.34
2023-10-20T09:50:24.542Z,93297.88
2023-10-20T09:52:54.633Z,93329.50
2023-10-20T09:55:22.737Z,93381.59
2023-10-20T09:57:51.342Z,93402.22
2023-10-20T10:00:31.751Z,93379.53
2023-10-20T10:03:00.502Z,93399.38
2023-10-20T10:05:31.974Z,93399.81
2023-10-20T10:08:08.686Z,93399.94
2023-10-20T10:10:36.995Z,93413.72
2023-10-20T10:13:07.069Z,93438.53
2023-10-20T10:15:40.412Z,93428.75
2023-10-20T10:18:10.751Z,93450.56
2023-10-20T10:20:46.825Z,93435.16
2023-10-20T10:23:15.843Z,93427.38
2023-10-20T10:25:44.997Z,93399.25
2023-10-20T10:28:14.840Z,93423.69
2023-10-20T10:30:44.419Z,93435.06
2023-10-20T10:33:13.380Z,93433.31
2023-10-20T10:35:42.893Z,93423.88
2023-10-20T10:38:20.120Z,93399.75
2023-10-20T10:40:49.437Z,93392.25
2023-10-20T10:43:19.209Z,93410.19
2023-10-20T10:45:47.229Z,93414.06
2023-10-20T10:48:16.184Z,93402.59
2023-10-20T10:50:48.997Z,93420.94
2023-10-20T10:53:17.332Z,93420.09
2023-10-20T10:55:45.918Z,93427.50
2023-10-20T10:58:15.005Z,93433.56
2023-10-20T11:00:44.387Z,93435.38
2023-10-20T11:03:15.254Z,93426.34
2023-10-20T11:05:44.959Z,93443.44
2023-10-20T11:08:14.430Z,93451.47
2023-10-20T11:10:44.713Z,93454.88
2023-10-20T11:13:14.526Z,93448.22
2023-10-20T11:15:42.605Z,93461.72
2023-10-20T11:18:12.156Z,93458.34
2023-10-20T11:20:42.401Z,93466.31
2023-10-20T11:23:13.480Z,93481.31
2023-10-20T11:25:43.149Z,93466.56
2023-10-20T11:28:10.959Z,93468.56
2023-10-20T11:30:40.193Z,93501.78
2023-10-20T11:33:10.812Z,93496.09
2023-10-20T11:35:40.789Z,93480.38
2023-10-20T11:38:08.343Z,93469.03
2023-10-20T11:40:37.210Z,93470.63
2023-10-20T11:43:05.592Z,93470.63
2023-10-20T11:45:33.540Z,93467.50
2023-10-20T11:48:01.254Z,93471.22
2023-10-20T11:50:29.352Z,93467.50
2023-10-20T11:52:56.965Z,93477.13
2023-10-20T11:55:24.746Z,93474.16
2023-10-20T11:57:53.657Z,93472.78
2023-10-20T12:00:22.993Z,93472.44
2023-10-20T12:02:50.849Z,93472.13
2023-10-20T12:05:18.662Z,93482.56
2023-10-20T12:07:46.282Z,93483.19
2023-10-20T12:10:14.655Z,93497.94
2023-10-20T12:12:42.308Z,93504.50
2023-10-20T12:15:12.821Z,93518.00
2023-10-20T12:17:42.335Z,93514.41
2023-10-20T12:20:11.528Z,93515.03
2023-10-20T12:22:39.068Z,93525.25
2023-10-20T12:25:07.535Z,93521.34
2023-10-20T12:27:35.084Z,93526.00
2023-10-20T12:30:02.645Z,93515.25
2023-10-20T12:32:31.647Z,93519.59
2023-10-20T12:34:59.247Z,93524.56
2023-10-20T12:37:26.870Z,93528.88
2023-10-20T12:39:55.306Z,93528.56
2023-10-20T12:46:35.418Z,93560.34
2023-10-20T12:49:04.572Z,93572.16
2023-10-20T12:51:32.274Z,93566.22
2023-10-20T12:53:59.888Z,93562.91
2023-10-20T12:56:28.455Z,93563.06
2023-10-20T12:58:56.597Z,93554.97
2023-10-20T13:01:24.452Z,93564.25
2023-10-20T13:03:52.410Z,93570.44
2023-10-20T13:06:21.607Z,93579.25
2023-10-20T13:08:49.319Z,93572.75
2023-10-20T13:11:17.088Z,93565.72
2023-10-20T13:13:44.715Z,93570.34
2023-10-20T13:16:13.150Z,93576.97
2023-10-20T13:18:40.866Z,93601.75
2023-10-20T13:21:08.537Z,93600.84
2023-10-20T13:23:37.522Z,93596.13
2023-10-20T13:26:06.248Z,93608.25
2023-10-20T13:28:34.237Z,93603.47
2023-10-20T13:33:36.162Z,93621.91
2023-10-20T13:36:05.249Z,93626.88
2023-10-20T13:38:36.233Z,93623.47
2023-10-20T13:41:06.481Z,93628.75
2023-10-20T13:43:34.156Z,93620.84
2023-10-20T13:46:02.780Z,93620.34
2023-10-20T13:48:30.613Z,93630.13
2023-10-20T13:50:58.436Z,93631.19
2023-10-20T13:53:26.635Z,93629.34
2023-10-20T13:55:54.263Z,93618.00
2023-10-20T13:58:23.471Z,93634.63
2023-10-20T14:00:52.475Z,93634.63
2023-10-20T14:03:20.326Z,93637.53
2023-10-20T14:05:55.744Z,93641.28
2023-10-20T14:08:24.018Z,93643.13
2023-10-20T14:10:51.761Z,93654.75
2023-10-20T14:13:19.791Z,93652.41
2023-10-20T14:15:50.734Z,93652.69
2023-10-20T14:18:18.776Z,93647.41
2023-10-20T14:20:46.691Z,93650.06
2023-10-20T14:23:18.769Z,93659.06
2023-10-20T14:25:46.430Z,93662.75
2023-10-20T14:28:14.214Z,93676.25
2023-10-20T14:30:41.775Z,93678.41
2023-10-20T14:33:10.853Z,93687.69
2023-10-20T14:35:38.962Z,93686.72
2023-10-20T14:38:07.019Z,93696.78
2023-10-20T14:40:34.619Z,93704.19
2023-10-20T14:43:02.207Z,93705.84
2023-10-20T14:45:29.801Z,93721.19
2023-10-20T14:47:57.547Z,93721.78
2023-10-20T14:50:27.733Z,93729.47
2023-10-20T14:52:56.341Z,93733.50
2023-10-20T14:55:24.982Z,93738.28
2023-10-20T14:57:52.679Z,93752.03
2023-10-20T15:00:20.421Z,93758.97
2023-10-20T15:02:48.178Z,93766.38
2023-10-20T15:05:16.015Z,93760.13
2023-10-20T15:07:45.340Z,93774.66
2023-10-20T15:10:13.143Z,93778.94
2023-10-20T15:12:43.789Z,93785.59
2023-10-20T15:15:11.899Z,93785.66
2023-10-20T15:17:39.682Z,93792.56
2023-10-20T15:20:09.808Z,93798.44
2023-10-20T15:22:37.406Z,93795.91
2023-10-20T15:25:07.323Z,93806.00
2023-10-20T15:27:35.023Z,93803.47
2023-10-20T15:30:02.760Z,93799.31
2023-10-20T15:32:31.427Z,93812.56
2023-10-20T15:34:59.290Z,93816.84
2023-10-20T15:37:27.232Z,93826.38
2023-10-20T15:40:04.158Z,93825.41
2023-10-20T15:42:43.755Z,93834.94
2023-10-20T15:45:12.556Z,93846.31
2023-10-20T15:47:40.423Z,93836.16
2023-10-20T15:50:08.825Z,93834.38
2023-10-20T15:52:36.429Z,93833.69
2023-10-20T15:55:05.244Z,93830.34
2023-10-20T15:57:33.042Z,93848.03
2023-10-20T16:00:02.084Z,93846.81
2023-10-20T16:02:29.944Z,93848.22
2023-10-20T16:04:58.039Z,93831.75
2023-10-20T16:07:26.198Z,93852.84
2023-10-20T16:09:53.897Z,93870.03
2023-10-20T16:12:21.618Z,93871.16
2023-10-20T16:14:49.247Z,93892.25
2023-10-20T16:17:18.225Z,93903.28
2023-10-20T16:19:45.876Z,93916.97
2023-10-20T16:22:14.065Z,93915.41
2023-10-20T16:24:42.677Z,93925.91
2023-10-20T16:27:12.885Z,93921.72
2023-10-20T16:29:40.674Z,93947.50
2023-10-20T16:32:08.813Z,93929.66
2023-10-20T16:34:37.851Z,93945.69
2023-10-20T16:37:05.776Z,93953.66
2023-10-20T16:39:33.564Z,93941.63
2023-10-20T16:42:01.541Z,93956.34
2023-10-20T16:44:30.602Z,93966.91
2023-10-20T16:47:00.001Z,93982.44
2023-10-20T16:49:27.823Z,93977.75
2023-10-20T16:51:56.796Z,93959.38
2023-10-20T16:54:24.446Z,93970.22
2023-10-20T16:56:53.142Z,93973.41
2023-10-20T16:59:25.029Z,93968.47
2023-10-20T17:01:52.755Z,93961.22
2023-10-20T17:04:20.546Z,93947.06
2023-10-20T17:06:48.288Z,93977.59
2023-10-20T17:09:18.423Z,93974.50
2023-10-20T17:11:46.306Z,93969.28
2023-10-20T17:14:13.995Z,93976.91
2023-10-20T17:16:44.014Z,93972.97
2023-10-20T17:19:12.037Z,93990.84
2023-10-20T17:21:39.666Z,93978.50
2023-10-20T17:24:09.213Z,93972.44
2023-10-20T17:26:38.351Z,93977.19
2023-10-20T17:29:06.776Z,93976.16
2023-10-20T17:31:34.943Z,93987.97
2023-10-20T17:34:02.795Z,93994.28
2023-10-20T17:36:30.642Z,93994.03
2023-10-20T17:38:58.829Z,93992.22
2023-10-20T17:41:26.478Z,93984.59
2023-10-20T17:43:56.952Z,93984.59
2023-10-20T17:46:24.549Z,93993.50
2023-10-20T17:48:52.473Z,93994.56
2023-10-20T17:51:20.088Z,93992.97
2023-10-20T17:53:47.746Z,93985.41
2023-10-20T17:56:15.558Z,93979.38
2023-10-20T17:58:43.644Z,93996.16
2023-10-20T18:01:15.243Z,93996.69
2023-10-20T18:03:44.758Z,93983.31
2023-10-20T18:06:14.754Z,93995.59
2023-10-20T18:08:45.566Z,93988.78
2023-10-20T18:11:16.545Z,93980.38
2023-10-20T18:13:46.094Z,93972.81
2023-10-20T18:16:16.856Z,93984.09
2023-10-20T18:18:46.237Z,94005.06
2023-10-20T18:21:14.372Z,94004.03
2023-10-20T18:23:42.181Z,94005.59
2023-10-20T18:26:09.841Z,94013.19
2023-10-20T18:28:37.748Z,94012.94
2023-10-20T18:31:12.645Z,94022.34
2023-10-20T18:33:42.359Z,94027.59
2023-10-20T18:36:10.514Z,94025.25
2023-10-20T18:38:38.217Z,94025.53
2023-10-20T18:41:06.347Z,94010.84
2023-10-20T18:43:34.840Z,94012.16
2023-10-20T18:46:03.377Z,94020.31
2023-10-20T18:48:31.170Z,94016.09
2023-10-20T18:51:06.241Z,94015.56
2023-10-20T18:53:49.172Z,94028.97
2023-10-20T18:56:16.916Z,94003.53
2023-10-20T18:58:47.556Z,93993.03
2023-10-20T19:01:15.913Z,94009.03
2023-10-20T19:03:43.900Z,94014.53
2023-10-20T19:06:14.284Z,94028.47
2023-10-20T19:08:42.121Z,94028.16
2023-10-20T19:11:11.499Z,94031.06
2023-10-20T19:13:40.223Z,94023.47
2023-10-20T19:16:07.893Z,94029.75
2023-10-20T19:18:35.662Z,94038.69
2023-10-20T19:21:05.943Z,94033.44
2023-10-20T19:23:36.521Z,94030.81
2023-10-20T19:26:08.666Z,94030.28
2023-10-20T19:28:36.493Z,94016.66
2023-10-20T19:31:05.291Z,94021.66
2023-10-20T19:33:33.481Z,94011.44
2023-10-20T19:36:01.774Z,94013.56
2023-10-20T19:38:29.441Z,94016.69
2023-10-20T19:40:58.768Z,94039.53
2023-10-20T19:43:27.112Z,94057.34
2023-10-20T19:45:55.018Z,94055.25
2023-10-20T19:48:22.646Z,94058.16
2023-10-20T19:50:51.191Z,94060.25
2023-10-20T19:53:18.856Z,94064.97
2023-10-20T19:55:47.301Z,94071.22
2023-10-20T19:58:16.390Z,94080.94
2023-10-20T20:00:44.061Z,94077.78
2023-10-20T20:03:12.393Z,94085.41
2023-10-20T20:05:40.604Z,94088.28
2023-10-20T20:08:08.921Z,94070.97
2023-10-20T20:10:36.517Z,94081.75
2023-10-20T20:13:04.619Z,94084.38
2023-10-20T20:15:33.645Z,94086.47
2023-10-20T20:18:01.386Z,94085.41
2023-10-20T20:20:29.280Z,94088.53
2023-10-20T20:22:56.801Z,94088.53
2023-10-20T20:25:24.454Z,94096.41
2023-10-20T20:27:53.333Z,94103.22
2023-10-20T20:30:23.283Z,94091.44
2023-10-20T20:32:52.324Z,94086.97
2023-10-20T20:35:21.265Z,94092.22
2023-10-20T20:37:48.795Z,94094.31
2023-10-20T20:40:16.559Z,94103.22
2023-10-20T20:42:44.150Z,94112.91
2023-10-20T20:45:12.150Z,94115.81
2023-10-20T20:47:39.928Z,94105.84
2023-10-20T20:50:18.862Z,94116.59
2023-10-20T20:52:54.054Z,94117.63
2023-10-20T20:55:21.678Z,94112.63
2023-10-20T20:57:49.239Z,94127.56
2023-10-20T21:00:17.711Z,94127.03
2023-10-20T21:02:45.347Z,94124.72
2023-10-20T21:05:14.639Z,94116.31
2023-10-20T21:07:42.207Z,94119.97
2023-10-20T21:10:10.536Z,94122.59
2023-10-20T21:12:38.064Z,94118.41
2023-10-20T21:15:08.654Z,94112.38
2023-10-20T21:17:36.386Z,94109.75
2023-10-20T21:20:04.803Z,94099.56
2023-10-20T21:22:33.723Z,94106.88
2023-10-20T21:25:01.286Z,94113.97
2023-10-20T21:27:29.278Z,94116.56
2023-10-20T21:29:56.933Z,94115.75
2023-10-20T21:32:24.478Z,94120.22
2023-10-20T21:34:52.081Z,94119.44
2023-10-20T21:37:19.667Z,94123.91
2023-10-20T21:39:48.659Z,94121.00
2023-10-20T21:42:16.305Z,94123.09
2023-10-20T21:44:43.852Z,94118.91
2023-10-20T21:47:11.654Z,94115.25
2023-10-20T21:49:39.562Z,94129.66
2023-10-20T21:52:07.318Z,94129.94
2023-10-20T21:54:34.923Z,94117.34
2023-10-20T21:57:04.038Z,94118.94
2023-10-20T21:59:32.389Z,94112.09
2023-10-20T22:02:09.636Z,94114.22
2023-10-20T22:04:37.958Z,94114.47
2023-10-20T22:07:05.510Z,94115.78
2023-10-20T22:09:46.620Z,94125.75
2023-10-20T22:12:22.042Z,94129.38
2023-10-20T22:14:49.673Z,94115.75
2023-10-20T22:17:17.253Z,94119.19
2023-10-20T22:19:44.865Z,94118.38
2023-10-20T22:22:13.156Z,94114.22
2023-10-20T22:24:40.659Z,94117.84
2023-10-20T22:27:08.333Z,94128.88
2023-10-20T22:29:37.717Z,94123.38
2023-10-20T22:32:06.415Z,94126.00
2023-10-20T22:34:33.928Z,94133.56
2023-10-20T22:37:01.480Z,94128.88
2023-10-20T22:39:29.006Z,94137.25
2023-10-20T22:42:00.691Z,94145.59
2023-10-20T22:44:28.627Z,94143.19
2023-10-20T22:46:57.602Z,94150.78
2023-10-20T22:49:25.812Z,94147.13
2023-10-20T22:51:53.372Z,94152.06
2023-10-20T22:54:20.982Z,94163.06
2023-10-20T22:56:48.560Z,94169.06
2023-10-20T22:59:16.138Z,94175.59
2023-10-20T23:01:43.742Z,94172.44
2023-10-20T23:04:14.837Z,94177.94
2023-10-20T23:06:44.849Z,94172.97
2023-10-20T23:09:13.989Z,94176.59
2023-10-20T23:11:41.660Z,94178.44
2023-10-20T23:14:09.236Z,94187.03
2023-10-20T23:16:37.089Z,94189.38
2023-10-20T23:19:04.786Z,94195.91
2023-10-20T23:21:33.641Z,94201.38
2023-10-20T23:24:01.241Z,94207.66
2023-10-20T23:26:28.825Z,94210.28
2023-10-20T23:28:56.547Z,94209.22
2023-10-20T23:31:24.148Z,94209.00
2023-10-20T23:33:51.816Z,94222.31
2023-10-20T23:36:19.687Z,94220.75
2023-10-20T23:38:48.575Z,94220.22
2023-10-20T23:41:16.124Z,94220.22
2023-10-20T23:43:43.632Z,94232.75
2023-10-20T23:46:11.167Z,94231.16
2023-10-20T23:48:38.806Z,94224.91
2023-10-20T23:51:06.541Z,94243.75
2023-10-20T23:53:34.127Z,94250.78
2023-10-20T23:56:03.040Z,94252.84
2023-10-20T23:58:30.560Z,94256.22
